createdAt,value
2023-01-03T00:01:25.194Z,9.75
2023-01-03T00:03:54.153Z,9.71
2023-01-03T00:06:23.496Z,9.68
2023-01-03T00:08:51.532Z,9.65
2023-01-03T00:11:41.839Z,9.61
2023-01-03T00:14:12.450Z,9.58
2023-01-03T00:16:44.269Z,9.54
2023-01-03T00:19:16.743Z,9.51
2023-01-03T00:21:45.786Z,9.48
2023-01-03T00:24:14.184Z,9.46
2023-01-03T00:26:43.814Z,9.44
2023-01-03T00:29:12.310Z,9.41
2023-01-03T00:31:44.130Z,9.40
2023-01-03T00:34:12.850Z,9.41
2023-01-03T00:36:41.027Z,9.43
2023-01-03T00:39:17.477Z,9.45
2023-01-03T00:41:47.010Z,9.47
2023-01-03T00:44:15.440Z,9.48
2023-01-03T00:46:45.391Z,9.47
2023-01-03T00:49:15.733Z,9.46
2023-01-03T00:51:46.883Z,9.45
2023-01-03T00:54:15.256Z,9.42
2023-01-03T00:56:45.899Z,9.40
2023-01-03T00:59:16.483Z,9.37
2023-01-03T01:01:47.521Z,9.33
2023-01-03T01:04:17.117Z,9.29
2023-01-03T01:06:49.405Z,9.26
2023-01-03T01:09:19.289Z,9.23
2023-01-03T01:11:48.059Z,9.22
2023-01-03T01:14:22.795Z,9.22
2023-01-03T01:16:51.667Z,9.23
2023-01-03T01:19:21.820Z,9.24
2023-01-03T01:21:49.548Z,9.27
2023-01-03T01:24:18.208Z,9.32
2023-01-03T01:26:46.427Z,9.37
2023-01-03T01:29:15.466Z,9.43
2023-01-03T01:31:44.970Z,9.49
2023-01-03T01:34:19.488Z,9.56
2023-01-03T01:36:47.944Z,9.63
2023-01-03T01:39:20.126Z,9.71
2023-01-03T01:42:07.617Z,9.77
2023-01-03T01:44:55.639Z,9.80
2023-01-03T01:47:27.722Z,9.82
2023-01-03T01:49:58.690Z,9.83
2023-01-03T01:52:26.789Z,9.84
2023-01-03T01:54:55.149Z,9.85
2023-01-03T01:57:24.445Z,9.85
2023-01-03T01:59:52.368Z,9.84
2023-01-03T02:02:23.628Z,9.83
2023-01-03T02:04:53.326Z,9.83
2023-01-03T02:07:22.983Z,9.85
2023-01-03T02:09:54.219Z,9.87
2023-01-03T02:12:49.851Z,9.90
2023-01-03T02:15:22.425Z,9.94
2023-01-03T02:17:56.031Z,9.98
2023-01-03T02:20:31.126Z,10.01
2023-01-03T02:23:16.655Z,10.02
2023-01-03T02:26:11.814Z,10.01
2023-01-03T02:28:53.671Z,10.00
2023-01-03T02:31:26.239Z,9.99
2023-01-03T02:34:01.430Z,9.97
2023-01-03T02:36:34.298Z,9.95
2023-01-03T02:39:04.565Z,9.92
2023-01-03T02:41:38.852Z,9.88
2023-01-03T02:44:10.680Z,9.85
2023-01-03T02:46:42.780Z,9.84
2023-01-03T02:49:17.231Z,9.82
2023-01-03T02:51:51.210Z,9.82
2023-01-03T02:54:25.577Z,9.83
2023-01-03T02:56:56.958Z,9.85
2023-01-03T02:59:30.488Z,9.88
2023-01-03T03:02:02.472Z,9.89
2023-01-03T03:04:31.011Z,9.88
2023-01-03T03:07:06.071Z,9.86
2023-01-03T03:09:54.964Z,9.83
2023-01-03T03:12:43.894Z,9.82
2023-01-03T03:15:12.456Z,9.78
2023-01-03T03:17:41.391Z,9.72
2023-01-03T03:20:32.616Z,9.69
2023-01-03T03:23:22.380Z,9.66
2023-01-03T03:25:52.407Z,9.65
2023-01-03T03:28:35.170Z,9.65
2023-01-03T03:31:06.136Z,9.66
2023-01-03T03:33:36.759Z,9.67
2023-01-03T03:36:06.454Z,9.67
2023-01-03T03:38:37.081Z,9.65
2023-01-03T03:41:29.836Z,9.62
2023-01-03T03:44:22.460Z,9.56
2023-01-03T03:46:55.197Z,9.50
2023-01-03T03:49:38.973Z,9.43
2023-01-03T03:52:08.977Z,9.35
2023-01-03T03:54:38.543Z,9.29
2023-01-03T03:57:24.268Z,9.25
2023-01-03T03:59:53.865Z,9.20
2023-01-03T04:02:26.518Z,9.17
2023-01-03T04:04:59.232Z,9.18
2023-01-03T04:07:27.217Z,9.21
2023-01-03T04:09:54.973Z,9.23
2023-01-03T04:12:25.292Z,9.25
2023-01-03T04:14:55.110Z,9.27
2023-01-03T04:17:25.186Z,9.29
2023-01-03T04:19:54.628Z,9.27
2023-01-03T04:22:24.784Z,9.21
2023-01-03T04:24:52.488Z,9.13
2023-01-03T04:27:23.433Z,9.06
2023-01-03T04:29:51.730Z,8.99
2023-01-03T04:32:22.965Z,8.90
2023-01-03T04:34:52.915Z,8.82
2023-01-03T04:37:22.766Z,8.73
2023-01-03T04:39:52.824Z,8.67
2023-01-03T04:42:41.241Z,8.63
2023-01-03T04:45:10.782Z,8.59
2023-01-03T04:47:38.552Z,8.55
2023-01-03T04:50:09.030Z,8.53
2023-01-03T04:52:36.789Z,8.53
2023-01-03T04:55:05.080Z,8.53
2023-01-03T04:57:32.748Z,8.53
2023-01-03T05:00:04.545Z,8.53
2023-01-03T05:02:32.529Z,8.52
2023-01-03T05:05:00.443Z,8.47
2023-01-03T05:07:28.174Z,8.44
2023-01-03T05:09:57.536Z,8.39
2023-01-03T05:12:26.845Z,8.32
2023-01-03T05:14:58.824Z,8.27
2023-01-03T05:17:29.527Z,8.21
2023-01-03T05:20:17.055Z,8.13
2023-01-03T05:23:03.329Z,8.09
2023-01-03T05:25:49.589Z,8.08
2023-01-03T05:28:18.154Z,8.09
2023-01-03T05:30:47.391Z,8.11
2023-01-03T05:33:15.624Z,8.09
2023-01-03T05:35:46.186Z,8.07
2023-01-03T05:38:14.311Z,8.02
2023-01-03T05:40:42.348Z,7.95
2023-01-03T05:43:10.399Z,7.88
2023-01-03T05:45:38.727Z,7.80
2023-01-03T05:48:10.944Z,7.71
2023-01-03T05:50:38.715Z,7.63
2023-01-03T05:53:07.646Z,7.53
2023-01-03T05:55:37.170Z,7.44
2023-01-03T05:58:06.483Z,7.36
2023-01-03T06:00:34.640Z,7.32
2023-01-03T06:03:02.524Z,7.27
2023-01-03T06:05:31.802Z,7.23
2023-01-03T06:08:01.001Z,7.21
2023-01-03T06:10:29.137Z,7.21
2023-01-03T06:12:57.062Z,7.19
2023-01-03T06:15:25.015Z,7.17
2023-01-03T06:17:57.205Z,7.16
2023-01-03T06:20:25.241Z,7.11
2023-01-03T06:22:53.804Z,7.07
2023-01-03T06:25:22.138Z,7.05
2023-01-03T06:27:50.552Z,7.02
2023-01-03T06:30:18.683Z,7.00
2023-01-03T06:32:46.992Z,6.97
2023-01-03T06:35:15.022Z,6.97
2023-01-03T06:37:42.846Z,6.98
2023-01-03T06:40:11.753Z,6.99
2023-01-03T06:42:39.626Z,7.03
2023-01-03T06:45:27.546Z,7.07
2023-01-03T06:48:13.867Z,7.13
2023-01-03T06:51:01.235Z,7.18
2023-01-03T06:53:32.503Z,7.24
2023-01-03T06:56:00.237Z,7.28
2023-01-03T06:58:28.040Z,7.29
2023-01-03T07:00:56.919Z,7.30
2023-01-03T07:03:24.762Z,7.29
2023-01-03T07:05:52.548Z,7.28
2023-01-03T07:08:21.988Z,7.27
2023-01-03T07:10:49.705Z,7.26
2023-01-03T07:13:36.211Z,7.24
2023-01-03T07:16:04.532Z,7.21
2023-01-03T07:18:33.481Z,7.21
2023-01-03T07:21:01.214Z,7.21
2023-01-03T07:23:29.160Z,7.23
2023-01-03T07:25:57.080Z,7.27
2023-01-03T07:28:24.773Z,7.29
2023-01-03T07:30:52.709Z,7.33
2023-01-03T07:33:21.193Z,7.37
2023-01-03T07:35:49.017Z,7.43
2023-01-03T07:38:17.084Z,7.49
2023-01-03T07:40:45.051Z,7.54
2023-01-03T07:43:31.541Z,7.57
2023-01-03T07:45:59.697Z,7.60
2023-01-03T07:48:27.612Z,7.62
2023-01-03T07:50:57.631Z,7.64
2023-01-03T07:53:25.948Z,7.67
2023-01-03T07:55:53.660Z,7.71
2023-01-03T07:58:21.858Z,7.77
2023-01-03T08:00:49.650Z,7.81
2023-01-03T08:03:17.487Z,7.86
2023-01-03T08:05:45.748Z,7.93
2023-01-03T08:08:13.565Z,7.99
2023-01-03T08:10:59.459Z,8.06
2023-01-03T08:13:27.243Z,8.15
2023-01-03T08:15:55.867Z,8.21
2023-01-03T08:18:25.105Z,8.24
2023-01-03T08:20:54.839Z,8.29
2023-01-03T08:23:22.630Z,8.32
2023-01-03T08:25:50.349Z,8.35
2023-01-03T08:28:18.414Z,8.33
2023-01-03T08:30:47.311Z,8.29
2023-01-03T08:33:16.533Z,8.24
2023-01-03T08:35:46.415Z,8.21
2023-01-03T08:38:16.456Z,8.21
2023-01-03T08:40:45.121Z,8.22
2023-01-03T08:43:14.537Z,8.25
2023-01-03T08:45:42.382Z,8.27
2023-01-03T08:48:12.808Z,8.32
2023-01-03T08:50:41.332Z,8.37
2023-01-03T08:53:09.243Z,8.41
2023-01-03T08:55:36.974Z,8.45
2023-01-03T08:58:09.013Z,8.48
2023-01-03T09:00:37.043Z,8.53
2023-01-03T09:03:05.100Z,8.57
2023-01-03T09:05:34.172Z,8.61
2023-01-03T09:08:02.465Z,8.66
2023-01-03T09:10:30.222Z,8.70
2023-01-03T09:12:57.993Z,8.71
2023-01-03T09:15:25.631Z,8.74
2023-01-03T09:17:53.359Z,8.77
2023-01-03T09:20:22.122Z,8.76
2023-01-03T09:22:50.306Z,8.72
2023-01-03T09:25:18.512Z,8.69
2023-01-03T09:27:47.389Z,8.68
2023-01-03T09:30:16.067Z,8.68
2023-01-03T09:32:44.410Z,8.73
2023-01-03T09:35:12.152Z,8.77
2023-01-03T09:37:43.956Z,8.81
2023-01-03T09:40:15.155Z,8.80
2023-01-03T09:43:01.930Z,8.76
2023-01-03T09:45:32.265Z,8.71
2023-01-03T09:48:01.543Z,8.70
2023-01-03T09:50:50.813Z,8.74
2023-01-03T09:53:40.508Z,8.76
2023-01-03T09:56:28.811Z,8.77
2023-01-03T09:59:17.931Z,8.76
2023-01-03T10:02:10.023Z,8.81
2023-01-03T10:04:55.028Z,9.06
2023-01-03T10:07:31.517Z,9.46
2023-01-03T10:10:10.489Z,9.82
2023-01-03T10:12:45.645Z,10.12
2023-01-03T10:15:21.101Z,10.45
2023-01-03T10:17:57.119Z,10.87
2023-01-03T10:20:39.292Z,11.27
2023-01-03T10:23:10.063Z,11.38
2023-01-03T10:25:39.710Z,11.52
2023-01-03T10:28:12.536Z,11.64
2023-01-03T10:30:57.407Z,11.67
2023-01-03T10:33:30.651Z,11.85
2023-01-03T10:36:01.525Z,12.10
2023-01-03T10:38:36.718Z,12.41
2023-01-03T10:41:15.444Z,12.56
2023-01-03T10:43:44.485Z,12.62
2023-01-03T10:46:18.169Z,12.71
2023-01-03T10:51:42.473Z,12.79
2023-01-03T10:54:13.133Z,12.92
2023-01-03T10:56:41.116Z,13.12
2023-01-03T10:59:13.157Z,13.33
2023-01-03T11:01:55.435Z,13.37
2023-01-03T11:04:23.636Z,13.28
2023-01-03T11:06:59.472Z,12.98
2023-01-03T11:09:29.068Z,12.80
2023-01-03T11:12:02.685Z,12.80
2023-01-03T11:14:30.591Z,12.62
2023-01-03T11:17:03.052Z,12.27
2023-01-03T11:19:32.516Z,11.94
2023-01-03T11:22:11.375Z,11.43
2023-01-03T11:24:46.409Z,10.92
2023-01-03T11:27:19.421Z,10.55
2023-01-03T11:29:51.363Z,10.30
2023-01-03T11:32:33.806Z,10.00
2023-01-03T11:35:22.851Z,9.70
2023-01-03T11:37:55.827Z,9.51
2023-01-03T11:40:28.096Z,9.25
2023-01-03T11:43:04.263Z,9.03
2023-01-03T11:45:48.109Z,8.80
2023-01-03T11:48:34.149Z,8.58
2023-01-03T11:51:08.062Z,8.32
2023-01-03T11:53:37.209Z,8.18
2023-01-03T11:56:20.601Z,8.09
2023-01-03T11:59:03.812Z,8.01
2023-01-03T12:01:46.139Z,7.97
2023-01-03T12:04:23.434Z,7.93
2023-01-03T12:07:21.545Z,7.90
2023-01-03T12:09:58.056Z,7.92
2023-01-03T12:12:37.083Z,7.88
2023-01-03T12:15:16.887Z,7.79
2023-01-03T12:17:48.596Z,7.67
2023-01-03T12:20:20.604Z,7.53
2023-01-03T12:22:54.052Z,7.39
2023-01-03T12:25:35.910Z,7.26
2023-01-03T12:28:25.253Z,7.15
2023-01-03T12:30:57.768Z,7.06
2023-01-03T12:33:33.377Z,6.98
2023-01-03T12:36:06.746Z,6.89
2023-01-03T12:38:39.891Z,6.80
2023-01-03T12:41:14.157Z,6.74
2023-01-03T12:43:46.511Z,6.70
2023-01-03T12:46:24.973Z,6.67
2023-01-03T12:49:01.653Z,6.66
2023-01-03T12:51:31.673Z,6.66
2023-01-03T12:54:12.780Z,6.64
2023-01-03T12:57:00.499Z,6.60
2023-01-03T12:59:45.000Z,6.58
2023-01-03T13:02:23.958Z,6.55
2023-01-03T13:04:54.492Z,6.53
2023-01-03T13:07:27.574Z,6.47
2023-01-03T13:10:01.466Z,6.42
2023-01-03T13:12:31.957Z,6.35
2023-01-03T13:15:14.897Z,6.30
2023-01-03T13:17:44.211Z,6.24
2023-01-03T13:20:25.649Z,6.21
2023-01-03T13:22:54.335Z,6.16
2023-01-03T13:25:38.113Z,6.12
2023-01-03T13:28:20.538Z,6.06
2023-01-03T13:31:10.744Z,5.99
2023-01-03T13:33:54.806Z,5.95
2023-01-03T13:36:50.559Z,5.90
2023-01-03T13:39:38.018Z,5.85
2023-01-03T13:42:06.506Z,5.81
2023-01-03T13:44:34.476Z,5.76
2023-01-03T13:47:03.567Z,5.69
2023-01-03T13:49:36.171Z,5.63
2023-01-03T13:52:06.738Z,5.59
2023-01-03T13:54:35.760Z,5.54
2023-01-03T13:57:06.474Z,5.47
2023-01-03T13:59:42.174Z,5.43
2023-01-03T14:02:27.354Z,5.38
2023-01-03T14:05:18.235Z,5.33
2023-01-03T14:08:01.716Z,5.26
2023-01-03T14:10:32.944Z,5.20
2023-01-03T14:13:15.456Z,5.15
2023-01-03T14:15:44.472Z,5.10
2023-01-03T14:18:20.589Z,5.04
2023-01-03T14:20:50.742Z,4.99
2023-01-03T14:26:13.368Z,4.92
2023-01-03T14:28:41.390Z,4.91
2023-01-03T14:31:20.086Z,4.91
2023-01-03T14:33:52.829Z,4.89
2023-01-03T14:36:20.644Z,4.87
2023-01-03T14:38:51.315Z,4.83
2023-01-03T14:41:33.293Z,4.80
2023-01-03T14:44:16.585Z,4.78
2023-01-03T14:46:52.611Z,4.75
2023-01-03T14:49:29.645Z,4.70
2023-01-03T14:52:00.359Z,4.65
2023-01-03T14:54:29.371Z,4.60
2023-01-03T14:57:00.010Z,4.54
2023-01-03T14:59:28.366Z,4.47
2023-01-03T15:02:03.994Z,4.41
2023-01-03T15:04:36.893Z,4.36
2023-01-03T15:07:13.465Z,4.31
2023-01-03T15:09:42.070Z,4.23
2023-01-03T15:12:14.264Z,4.17
2023-01-03T15:14:57.335Z,4.14
2023-01-03T15:17:27.739Z,4.09
2023-01-03T15:20:00.787Z,4.05
2023-01-03T15:22:33.090Z,4.01
2023-01-03T15:25:04.251Z,3.96
2023-01-03T15:27:33.812Z,3.90
2023-01-03T15:30:20.171Z,3.86
2023-01-03T15:33:00.028Z,3.81
2023-01-03T15:35:34.064Z,3.74
2023-01-03T15:38:03.674Z,3.69
2023-01-03T15:40:31.857Z,3.65
2023-01-03T15:43:24.249Z,3.62
2023-01-03T15:45:58.984Z,3.60
2023-01-03T15:48:28.028Z,3.62
2023-01-03T15:50:59.329Z,3.63
2023-01-03T15:53:29.972Z,3.65
2023-01-03T15:56:08.068Z,3.70
2023-01-03T15:58:36.800Z,3.74
2023-01-03T16:01:11.362Z,3.80
2023-01-03T16:03:40.654Z,3.86
2023-01-03T16:06:11.296Z,3.89
2023-01-03T16:08:43.537Z,3.88
2023-01-03T16:11:18.434Z,3.89
2023-01-03T16:14:01.435Z,3.88
2023-01-03T16:16:44.955Z,3.86
2023-01-03T16:19:17.227Z,3.81
2023-01-03T16:22:08.984Z,3.76
2023-01-03T16:24:39.138Z,3.71
2023-01-03T16:27:12.907Z,3.66
2023-01-03T16:29:42.096Z,3.61
2023-01-03T16:32:24.099Z,3.57
2023-01-03T16:34:54.563Z,3.52
2023-01-03T16:37:26.531Z,3.52
2023-01-03T16:39:54.594Z,3.52
2023-01-03T16:42:27.491Z,3.55
2023-01-03T16:44:56.348Z,3.58
2023-01-03T16:47:30.059Z,3.61
2023-01-03T16:50:01.025Z,3.64
2023-01-03T16:52:33.595Z,3.63
2023-01-03T16:55:07.372Z,3.64
2023-01-03T16:57:35.785Z,3.66
2023-01-03T17:00:14.005Z,3.65
2023-01-03T17:02:42.507Z,3.63
2023-01-03T17:05:12.124Z,3.63
2023-01-03T17:07:43.697Z,3.62
2023-01-03T17:10:19.939Z,3.62
2023-01-03T17:12:48.490Z,3.61
2023-01-03T17:15:18.632Z,3.60
2023-01-03T17:17:46.631Z,3.58
2023-01-03T17:20:17.519Z,3.55
2023-01-03T17:22:49.227Z,3.51
2023-01-03T17:25:17.330Z,3.46
2023-01-03T17:28:04.663Z,3.41
2023-01-03T17:30:37.075Z,3.35
2023-01-03T17:33:05.102Z,3.31
2023-01-03T17:35:39.624Z,3.29
2023-01-03T17:38:25.792Z,3.28
2023-01-03T17:40:57.025Z,3.31
2023-01-03T17:43:24.918Z,3.36
2023-01-03T17:46:22.854Z,3.40
2023-01-03T17:49:10.884Z,3.46
2023-01-03T17:51:39.084Z,3.52
2023-01-03T17:54:08.290Z,3.59
2023-01-03T17:56:40.293Z,3.64
2023-01-03T17:59:14.934Z,3.67
2023-01-03T18:01:48.967Z,3.70
2023-01-03T18:04:17.046Z,3.70
2023-01-03T18:06:47.380Z,3.69
2023-01-03T18:09:27.960Z,3.69
2023-01-03T18:11:55.952Z,3.66
2023-01-03T18:14:27.358Z,3.64
2023-01-03T18:16:55.597Z,3.62
2023-01-03T18:19:25.482Z,3.62
2023-01-03T18:21:55.092Z,3.62
2023-01-03T18:24:28.741Z,3.61
2023-01-03T18:33:25.753Z,3.60
2023-01-03T18:35:56.217Z,3.61
2023-01-03T18:38:27.997Z,3.61
2023-01-03T18:41:00.767Z,3.62
2023-01-03T18:43:33.281Z,3.65
2023-01-03T18:46:04.171Z,3.68
2023-01-03T18:48:32.743Z,3.71
2023-01-03T18:51:06.167Z,3.74
2023-01-03T18:53:41.403Z,3.78
2023-01-03T18:56:19.415Z,3.82
2023-01-03T18:59:01.670Z,3.85
2023-01-03T19:01:43.156Z,3.85
2023-01-03T19:04:11.846Z,3.82
2023-01-03T19:06:41.679Z,3.82
2023-01-03T19:09:13.690Z,3.81
2023-01-03T19:11:47.561Z,3.81
2023-01-03T19:14:15.642Z,3.76
2023-01-03T19:16:44.219Z,3.74
2023-01-03T19:19:14.590Z,3.71
2023-01-03T19:21:46.368Z,3.68
2023-01-03T19:24:21.622Z,3.66
2023-01-03T19:26:52.974Z,3.64
2023-01-03T19:29:28.014Z,3.62
2023-01-03T19:31:59.256Z,3.60
2023-01-03T19:34:27.323Z,3.57
2023-01-03T19:36:55.406Z,3.56
2023-01-03T19:39:26.670Z,3.55
2023-01-03T19:45:14.686Z,3.59
2023-01-03T19:47:42.770Z,3.63
2023-01-03T19:50:23.223Z,3.66
2023-01-03T19:52:52.756Z,3.70
2023-01-03T19:55:24.929Z,3.73
2023-01-03T19:57:53.329Z,3.75
2023-01-03T20:00:23.827Z,3.75
2023-01-03T20:02:52.995Z,3.75
2023-01-03T20:05:22.781Z,3.75
2023-01-03T20:07:51.664Z,3.72
2023-01-03T20:10:21.562Z,3.69
2023-01-03T20:12:52.652Z,3.66
2023-01-03T20:15:22.336Z,3.61
2023-01-03T20:17:52.312Z,3.55
2023-01-03T20:20:20.639Z,3.47
2023-01-03T20:23:06.777Z,3.41
2023-01-03T20:25:38.846Z,3.36
2023-01-03T20:28:16.238Z,3.34
2023-01-03T20:30:44.499Z,3.35
2023-01-03T20:33:14.133Z,3.36
2023-01-03T20:38:29.918Z,3.40
2023-01-03T20:40:57.787Z,3.41
2023-01-03T20:43:26.422Z,3.42
2023-01-03T20:45:55.524Z,3.44
2023-01-03T20:48:26.143Z,3.45
2023-01-03T20:50:56.636Z,3.43
2023-01-03T20:53:26.613Z,3.41
2023-01-03T20:55:54.664Z,3.41
2023-01-03T20:58:24.947Z,3.41
2023-01-03T21:01:04.059Z,3.40
2023-01-03T21:03:32.869Z,3.40
2023-01-03T21:06:00.752Z,3.39
2023-01-03T21:08:48.565Z,3.38
2023-01-03T21:11:16.487Z,3.37
2023-01-03T21:13:44.189Z,3.36
2023-01-03T21:16:18.952Z,3.36
2023-01-03T21:18:50.384Z,3.37
2023-01-03T21:21:19.274Z,3.40
2023-01-03T21:23:49.019Z,3.44
2023-01-03T21:26:17.148Z,3.48
2023-01-03T21:28:44.859Z,3.54
2023-01-03T21:31:16.683Z,3.58
2023-01-03T21:33:50.081Z,3.61
2023-01-03T21:36:23.427Z,3.63
2023-01-03T21:38:52.687Z,3.63
2023-01-03T21:41:26.903Z,3.62
2023-01-03T21:43:55.537Z,3.62
2023-01-03T21:46:27.974Z,3.62
2023-01-03T21:48:56.424Z,3.60
2023-01-03T21:51:41.604Z,3.58
2023-01-03T21:54:09.900Z,3.56
2023-01-03T21:56:44.426Z,3.54
2023-01-03T21:59:12.686Z,3.53
2023-01-03T22:01:55.551Z,3.56
2023-01-03T22:04:23.893Z,3.59
2023-01-03T22:07:00.016Z,3.61
2023-01-03T22:09:46.278Z,3.64
2023-01-03T22:12:15.791Z,3.68
2023-01-03T22:15:02.246Z,3.72
2023-01-03T22:17:29.985Z,3.75
2023-01-03T22:19:59.059Z,3.75
2023-01-03T22:22:27.377Z,3.74
2023-01-03T22:24:55.064Z,3.71
2023-01-03T22:27:23.253Z,3.66
2023-01-03T22:29:51.403Z,3.62
2023-01-03T22:32:24.069Z,3.58
2023-01-03T22:34:54.805Z,3.53
2023-01-03T22:37:23.530Z,3.49
2023-01-03T22:39:51.250Z,3.44
2023-01-03T22:42:26.316Z,3.42
2023-01-03T22:44:54.189Z,3.38
2023-01-03T22:47:22.001Z,3.36
2023-01-03T22:49:51.387Z,3.33
2023-01-03T22:52:20.561Z,3.30
2023-01-03T22:54:48.577Z,3.28
2023-01-03T22:57:20.977Z,3.27
2023-01-03T22:59:48.657Z,3.25
2023-01-03T23:02:28.137Z,3.24
2023-01-03T23:04:56.949Z,3.23
2023-01-03T23:07:27.445Z,3.24
2023-01-03T23:09:55.169Z,3.26
2023-01-03T23:12:41.459Z,3.27
2023-01-03T23:15:09.722Z,3.30
2023-01-03T23:17:56.827Z,3.33
2023-01-03T23:20:29.049Z,3.35
2023-01-03T23:23:00.105Z,3.36
2023-01-03T23:25:28.137Z,3.35
2023-01-03T23:27:55.908Z,3.30
2023-01-03T23:30:23.692Z,3.25
2023-01-03T23:32:51.511Z,3.20
2023-01-03T23:35:19.813Z,3.15
2023-01-03T23:37:47.562Z,3.12
2023-01-03T23:40:15.336Z,3.07
2023-01-03T23:42:45.183Z,3.02
2023-01-03T23:45:13.051Z,2.96
2023-01-03T23:47:40.729Z,2.91
2023-01-03T23:50:09.219Z,2.86
2023-01-03T23:52:37.226Z,2.82
2023-01-03T23:55:12.124Z,2.78
2023-01-03T23:57:41.063Z,2.75
